sensor_id;sensor_type;location;lat;lon;timestamp;P1;durP1;ratioP1;P2;durP2;ratioP2
3831;SDS011;12460;42.662;23.288;2023-07-30T00:13:10;6.13;;;5.30;;
3831;SDS011;12460;42.662;23.288;2023-07-30T00:28:12;5.00;;;4.50;;
3831;SDS011;12460;42.662;23.288;2023-07-30T00:43:14;5.23;;;4.83;;
3831;SDS011;12460;42.662;23.288;2023-07-30T00:58:16;5.00;;;4.50;;
3831;SDS011;12460;42.662;23.288;2023-07-30T01:13:20;4.83;;;4.53;;
3831;SDS011;12460;42.662;23.288;2023-07-30T01:28:22;4.80;;;4.50;;
3831;SDS011;12460;42.662;23.288;2023-07-30T01:43:24;5.67;;;5.27;;
3831;SDS011;12460;42.662;23.288;2023-07-30T01:58:26;5.40;;;4.90;;
3831;SDS011;12460;42.662;23.288;2023-07-30T02:13:28;4.50;;;4.20;;
3831;SDS011;12460;42.662;23.288;2023-07-30T02:28:30;4.73;;;4.43;;
3831;SDS011;12460;42.662;23.288;2023-07-30T02:43:32;5.80;;;5.40;;
3831;SDS011;12460;42.662;23.288;2023-07-30T02:58:34;5.57;;;5.07;;
3831;SDS011;12460;42.662;23.288;2023-07-30T03:13:36;6.13;;;5.53;;
3831;SDS011;12460;42.662;23.288;2023-07-30T03:28:38;5.50;;;5.00;;
3831;SDS011;12460;42.662;23.288;2023-07-30T03:43:41;5.70;;;5.30;;
3831;SDS011;12460;42.662;23.288;2023-07-30T03:58:43;6.20;;;5.60;;
3831;SDS011;12460;42.662;23.288;2023-07-30T04:13:45;6.23;;;5.73;;
3831;SDS011;12460;42.662;23.288;2023-07-30T04:28:47;5.93;;;5.43;;
3831;SDS011;12460;42.662;23.288;2023-07-30T04:43:49;6.87;;;6.30;;
3831;SDS011;12460;42.662;23.288;2023-07-30T04:58:52;6.00;;;5.50;;
3831;SDS011;12460;42.662;23.288;2023-07-30T05:13:55;8.57;;;7.90;;
3831;SDS011;12460;42.662;23.288;2023-07-30T05:28:57;7.03;;;6.53;;
3831;SDS011;12460;42.662;23.288;2023-07-30T05:43:59;6.03;;;5.63;;
3831;SDS011;12460;42.662;23.288;2023-07-30T05:59:01;6.70;;;6.20;;
3831;SDS011;12460;42.662;23.288;2023-07-30T06:14:03;6.50;;;6.00;;
3831;SDS011;12460;42.662;23.288;2023-07-30T06:29:05;5.77;;;5.37;;
3831;SDS011;12460;42.662;23.288;2023-07-30T06:44:07;6.70;;;6.20;;
3831;SDS011;12460;42.662;23.288;2023-07-30T06:59:10;6.10;;;5.70;;
3831;SDS011;12460;42.662;23.288;2023-07-30T07:14:12;5.40;;;5.10;;
3831;SDS011;12460;42.662;23.288;2023-07-30T07:29:14;5.87;;;5.47;;
3831;SDS011;12460;42.662;23.288;2023-07-30T07:44:16;5.57;;;5.07;;
3831;SDS011;12460;42.662;23.288;2023-07-30T07:59:18;5.93;;;5.63;;
3831;SDS011;12460;42.662;23.288;2023-07-30T08:14:20;5.40;;;5.10;;
3831;SDS011;12460;42.662;23.288;2023-07-30T08:29:22;5.80;;;5.30;;
3831;SDS011;12460;42.662;23.288;2023-07-30T08:44:24;6.80;;;6.30;;
3831;SDS011;12460;42.662;23.288;2023-07-30T08:59:27;5.13;;;4.77;;
3831;SDS011;12460;42.662;23.288;2023-07-30T09:14:52;5.27;;;4.90;;
3831;SDS011;12460;42.662;23.288;2023-07-30T09:29:58;4.67;;;4.37;;
3831;SDS011;12460;42.662;23.288;2023-07-30T09:45:01;5.20;;;4.90;;
3831;SDS011;12460;42.662;23.288;2023-07-30T10:00:04;5.30;;;5.00;;
3831;SDS011;12460;42.662;23.288;2023-07-30T10:15:08;5.57;;;5.18;;
3831;SDS011;12460;42.662;23.288;2023-07-30T10:30:14;8.00;;;7.40;;
3831;SDS011;12460;42.662;23.288;2023-07-30T10:45:18;6.47;;;5.87;;
3831;SDS011;12460;42.662;23.288;2023-07-30T11:00:20;6.07;;;5.63;;
3831;SDS011;12460;42.662;23.288;2023-07-30T11:15:24;5.80;;;5.40;;
3831;SDS011;12460;42.662;23.288;2023-07-30T11:30:26;6.37;;;5.97;;
3831;SDS011;12460;42.662;23.288;2023-07-30T11:45:30;6.43;;;5.93;;
3831;SDS011;12460;42.662;23.288;2023-07-30T12:00:32;7.20;;;6.70;;
3831;SDS011;12460;42.662;23.288;2023-07-30T12:15:35;6.80;;;6.40;;
3831;SDS011;12460;42.662;23.288;2023-07-30T12:30:37;6.70;;;6.20;;
3831;SDS011;12460;42.662;23.288;2023-07-30T12:45:39;7.00;;;6.37;;
3831;SDS011;12460;42.662;23.288;2023-07-30T13:00:41;7.77;;;7.17;;
3831;SDS011;12460;42.662;23.288;2023-07-30T13:15:43;7.47;;;6.97;;
3831;SDS011;12460;42.662;23.288;2023-07-30T13:30:45;7.17;;;6.67;;
3831;SDS011;12460;42.662;23.288;2023-07-30T13:45:47;7.70;;;7.23;;
3831;SDS011;12460;42.662;23.288;2023-07-30T14:00:53;7.23;;;6.73;;
3831;SDS011;12460;42.662;23.288;2023-07-30T14:15:56;7.20;;;6.70;;
3831;SDS011;12460;42.662;23.288;2023-07-30T14:30:58;7.37;;;6.87;;
3831;SDS011;12460;42.662;23.288;2023-07-30T14:46:00;7.90;;;7.30;;
3831;SDS011;12460;42.662;23.288;2023-07-30T15:01:02;7.57;;;7.00;;
3831;SDS011;12460;42.662;23.288;2023-07-30T15:16:04;9.03;;;8.17;;
3831;SDS011;12460;42.662;23.288;2023-07-30T15:31:06;7.47;;;6.97;;
3831;SDS011;12460;42.662;23.288;2023-07-30T15:46:08;6.87;;;6.37;;
3831;SDS011;12460;42.662;23.288;2023-07-30T16:01:10;7.97;;;7.37;;
3831;SDS011;12460;42.662;23.288;2023-07-30T16:16:16;7.43;;;6.93;;
3831;SDS011;12460;42.662;23.288;2023-07-30T16:31:19;8.70;;;8.00;;
3831;SDS011;12460;42.662;23.288;2023-07-30T16:46:21;9.53;;;8.73;;
3831;SDS011;12460;42.662;23.288;2023-07-30T17:01:23;8.37;;;7.67;;
3831;SDS011;12460;42.662;23.288;2023-07-30T17:16:26;7.63;;;7.03;;
3831;SDS011;12460;42.662;23.288;2023-07-30T17:31:30;9.57;;;8.77;;
3831;SDS011;12460;42.662;23.288;2023-07-30T17:46:32;10.43;;;9.63;;
3831;SDS011;12460;42.662;23.288;2023-07-30T18:01:34;9.47;;;8.67;;
3831;SDS011;12460;42.662;23.288;2023-07-30T18:16:37;11.93;;;10.73;;
3831;SDS011;12460;42.662;23.288;2023-07-30T18:31:39;11.80;;;10.70;;
3831;SDS011;12460;42.662;23.288;2023-07-30T18:46:41;10.27;;;9.47;;
3831;SDS011;12460;42.662;23.288;2023-07-30T19:01:43;10.93;;;10.03;;
3831;SDS011;12460;42.662;23.288;2023-07-30T19:16:45;10.70;;;9.80;;
3831;SDS011;12460;42.662;23.288;2023-07-30T19:31:47;8.50;;;7.83;;
3831;SDS011;12460;42.662;23.288;2023-07-30T19:46:49;9.83;;;8.83;;
3831;SDS011;12460;42.662;23.288;2023-07-30T20:01:51;7.90;;;7.10;;
3831;SDS011;12460;42.662;23.288;2023-07-30T20:16:53;7.97;;;7.33;;
3831;SDS011;12460;42.662;23.288;2023-07-30T20:31:55;7.10;;;6.50;;
3831;SDS011;12460;42.662;23.288;2023-07-30T20:46:58;6.50;;;5.30;;
3831;SDS011;12460;42.662;23.288;2023-07-30T21:02:00;5.10;;;4.80;;
3831;SDS011;12460;42.662;23.288;2023-07-30T21:17:03;6.30;;;5.80;;
3831;SDS011;12460;42.662;23.288;2023-07-30T21:32:05;5.07;;;4.67;;
3831;SDS011;12460;42.662;23.288;2023-07-30T21:47:07;5.03;;;4.63;;
3831;SDS011;12460;42.662;23.288;2023-07-30T22:02:09;4.27;;;3.97;;
3831;SDS011;12460;42.662;23.288;2023-07-30T22:17:11;4.20;;;3.90;;
3831;SDS011;12460;42.662;23.288;2023-07-30T22:32:13;4.67;;;4.37;;
3831;SDS011;12460;42.662;23.288;2023-07-30T22:47:15;4.73;;;4.33;;
3831;SDS011;12460;42.662;23.288;2023-07-30T23:02:17;5.27;;;4.80;;
3831;SDS011;12460;42.662;23.288;2023-07-30T23:17:19;4.80;;;4.40;;
3831;SDS011;12460;42.662;23.288;2023-07-30T23:32:21;4.80;;;4.40;;
3831;SDS011;12460;42.662;23.288;2023-07-30T23:47:23;4.83;;;4.43;;
